createdAt,value
2019-05-09T00:00:34.722Z,9.83
2019-05-09T00:01:34.758Z,9.88
2019-05-09T00:02:34.797Z,9.88
2019-05-09T00:03:34.841Z,9.83
2019-05-09T00:04:34.910Z,9.86
2019-05-09T00:05:34.939Z,9.79
2019-05-09T00:06:34.979Z,9.73
2019-05-09T00:07:35.038Z,9.71
2019-05-09T00:08:35.070Z,9.68
2019-05-09T00:09:35.141Z,9.71
2019-05-09T00:10:39.312Z,9.76
2019-05-09T00:11:35.205Z,9.73
2019-05-09T00:12:35.251Z,9.81
2019-05-09T00:13:35.298Z,9.81
2019-05-09T00:14:35.365Z,9.83
2019-05-09T00:15:35.401Z,9.83
2019-05-09T00:16:35.435Z,9.81
2019-05-09T00:17:35.479Z,9.79
2019-05-09T00:18:35.524Z,9.82
2019-05-09T00:19:35.603Z,9.81
2019-05-09T00:20:35.632Z,9.81
2019-05-09T00:21:35.663Z,9.91
2019-05-09T00:22:35.707Z,9.81
2019-05-09T00:23:35.758Z,9.81
2019-05-09T00:24:35.820Z,9.81
2019-05-09T00:25:35.863Z,9.83
2019-05-09T00:26:35.893Z,9.82
2019-05-09T00:27:35.939Z,9.81
2019-05-09T00:28:36.167Z,9.94
2019-05-09T00:29:36.052Z,9.91
2019-05-09T00:30:36.095Z,10.00
2019-05-09T00:31:36.119Z,9.85
2019-05-09T00:32:36.168Z,9.96
2019-05-09T00:33:36.208Z,9.93
2019-05-09T00:34:36.252Z,9.91
2019-05-09T00:35:36.334Z,9.93
2019-05-09T00:36:36.347Z,10.00
2019-05-09T00:37:36.392Z,9.99
2019-05-09T00:38:36.445Z,9.79
2019-05-09T00:39:36.488Z,9.85
2019-05-09T00:40:36.551Z,9.88
2019-05-09T00:41:36.589Z,9.81
2019-05-09T00:42:36.619Z,9.83
2019-05-09T00:43:36.667Z,9.78
2019-05-09T00:44:36.761Z,9.70
2019-05-09T00:45:36.782Z,9.73
2019-05-09T00:46:36.805Z,9.67
2019-05-09T00:47:36.849Z,9.61
2019-05-09T00:48:36.891Z,9.52
2019-05-09T00:49:36.941Z,9.52
2019-05-09T00:50:37.002Z,9.45
2019-05-09T00:51:37.055Z,9.49
2019-05-09T00:52:37.073Z,9.40
2019-05-09T00:53:37.125Z,9.42
2019-05-09T00:54:37.163Z,9.39
2019-05-09T00:55:37.239Z,9.38
2019-05-09T00:56:37.266Z,9.32
2019-05-09T00:57:37.301Z,9.31
2019-05-09T00:58:37.351Z,9.43
2019-05-09T00:59:37.404Z,9.48
2019-05-09T01:00:37.490Z,9.53
2019-05-09T01:01:37.484Z,9.53
2019-05-09T01:02:37.530Z,9.60
2019-05-09T01:03:37.573Z,9.53
2019-05-09T01:04:37.626Z,9.52
2019-05-09T01:05:37.685Z,9.60
2019-05-09T01:06:37.738Z,9.58
2019-05-09T01:07:37.767Z,9.61
2019-05-09T01:08:37.808Z,9.58
2019-05-09T01:09:37.850Z,9.50
2019-05-09T01:10:37.893Z,9.49
2019-05-09T01:11:37.977Z,9.42
2019-05-09T01:12:37.979Z,9.35
2019-05-09T01:13:38.030Z,9.35
2019-05-09T01:14:38.149Z,9.34
2019-05-09T01:15:38.116Z,9.35
2019-05-09T01:16:38.182Z,9.31
2019-05-09T01:17:38.216Z,9.20
2019-05-09T01:18:38.267Z,9.23
2019-05-09T01:19:38.299Z,9.23
2019-05-09T01:20:38.344Z,9.18
2019-05-09T01:21:38.422Z,9.10
2019-05-09T01:22:38.443Z,9.04
2019-05-09T01:23:38.481Z,9.10
2019-05-09T01:24:38.526Z,9.04
2019-05-09T01:25:38.572Z,9.09
2019-05-09T01:26:38.635Z,8.97
2019-05-09T01:27:38.677Z,8.97
2019-05-09T01:28:38.704Z,8.88
2019-05-09T01:29:38.760Z,8.83
2019-05-09T01:30:38.796Z,8.79
2019-05-09T01:31:38.847Z,8.84
2019-05-09T01:32:38.916Z,8.78
2019-05-09T01:33:38.932Z,8.65
2019-05-09T01:34:38.982Z,8.68
2019-05-09T01:35:39.022Z,8.51
2019-05-09T01:36:39.068Z,8.48
2019-05-09T01:37:39.135Z,8.42
2019-05-09T01:38:39.158Z,8.36
2019-05-09T01:39:39.268Z,8.30
2019-05-09T01:40:39.246Z,8.28
2019-05-09T01:41:39.301Z,8.29
2019-05-09T01:42:39.365Z,8.18
2019-05-09T01:43:39.382Z,8.10
2019-05-09T01:44:39.426Z,8.15
2019-05-09T01:45:39.482Z,8.11
2019-05-09T01:46:39.619Z,8.17
2019-05-09T01:47:39.586Z,8.14
2019-05-09T01:48:39.618Z,8.18
2019-05-09T01:49:39.649Z,8.14
2019-05-09T01:50:39.698Z,8.14
2019-05-09T01:51:39.741Z,8.18
2019-05-09T01:52:39.814Z,8.15
2019-05-09T01:53:39.830Z,8.18
2019-05-09T01:54:39.874Z,8.17
2019-05-09T01:55:39.921Z,8.14
2019-05-09T01:56:39.962Z,8.11
2019-05-09T01:57:40.032Z,8.12
2019-05-09T01:58:40.059Z,8.15
2019-05-09T01:59:40.097Z,8.10
2019-05-09T02:00:40.142Z,8.08
2019-05-09T02:01:40.186Z,8.08
2019-05-09T02:02:40.256Z,8.03
2019-05-09T02:03:40.300Z,8.08
2019-05-09T02:04:40.325Z,8.17
2019-05-09T02:05:40.364Z,8.15
2019-05-09T02:06:40.411Z,8.11
2019-05-09T02:07:40.458Z,8.15
2019-05-09T02:08:40.516Z,8.17
2019-05-09T02:09:40.544Z,8.15
2019-05-09T02:10:40.591Z,8.14
2019-05-09T02:11:43.343Z,8.10
2019-05-09T02:12:42.530Z,8.10
2019-05-09T02:13:40.743Z,7.96
2019-05-09T02:14:40.773Z,7.97
2019-05-09T02:15:40.812Z,7.93
2019-05-09T02:16:43.119Z,7.84
2019-05-09T02:17:54.882Z,7.89
2019-05-09T02:18:40.965Z,7.84
2019-05-09T02:19:40.988Z,7.78
2019-05-09T02:20:41.036Z,7.78
2019-05-09T02:21:41.080Z,7.81
2019-05-09T02:22:43.378Z,7.84
2019-05-09T02:23:43.096Z,7.77
2019-05-09T02:24:41.241Z,7.72
2019-05-09T02:25:41.257Z,7.71
2019-05-09T02:26:43.750Z,7.71
2019-05-09T02:27:43.505Z,7.63
2019-05-09T02:28:43.254Z,7.58
2019-05-09T02:29:41.452Z,7.56
2019-05-09T02:30:44.749Z,7.66
2019-05-09T02:31:44.584Z,7.60
2019-05-09T02:32:44.738Z,7.63
2019-05-09T02:33:45.104Z,7.58
2019-05-09T02:34:44.091Z,7.45
2019-05-09T02:35:52.893Z,7.45
2019-05-09T02:36:41.749Z,7.47
2019-05-09T02:37:41.788Z,7.44
2019-05-09T02:38:41.843Z,7.35
2019-05-09T02:39:41.902Z,7.32
2019-05-09T02:40:41.930Z,7.32
2019-05-09T02:41:59.536Z,7.34
2019-05-09T02:42:42.012Z,7.37
2019-05-09T02:43:42.056Z,7.31
2019-05-09T02:44:42.121Z,7.26
2019-05-09T02:45:42.148Z,7.35
2019-05-09T02:46:42.189Z,7.38
2019-05-09T02:47:42.235Z,7.41
2019-05-09T02:48:42.311Z,7.41
2019-05-09T02:49:42.390Z,7.29
2019-05-09T02:50:42.388Z,7.26
2019-05-09T02:51:42.407Z,7.29
2019-05-09T02:52:42.453Z,7.32
2019-05-09T02:53:42.499Z,7.31
2019-05-09T02:54:42.541Z,7.34
2019-05-09T02:55:42.715Z,7.29
2019-05-09T02:56:42.630Z,7.24
2019-05-09T02:57:42.672Z,7.24
2019-05-09T02:58:42.725Z,7.20
2019-05-09T02:59:42.764Z,7.20
2019-05-09T03:00:42.848Z,7.22
2019-05-09T03:01:42.855Z,7.20
2019-05-09T03:02:42.971Z,7.20
2019-05-09T03:03:42.938Z,7.27
2019-05-09T03:04:42.990Z,7.16
2019-05-09T03:05:43.052Z,7.16
2019-05-09T03:06:43.094Z,7.07
2019-05-09T03:07:43.113Z,7.09
2019-05-09T03:08:43.159Z,7.01
2019-05-09T03:09:43.276Z,7.02
2019-05-09T03:10:43.272Z,7.04
2019-05-09T03:11:43.291Z,7.01
2019-05-09T03:12:43.334Z,6.97
2019-05-09T03:13:43.383Z,6.95
2019-05-09T03:14:43.423Z,6.91
2019-05-09T03:15:43.486Z,6.90
2019-05-09T03:16:43.536Z,6.90
2019-05-09T03:17:43.557Z,6.95
2019-05-09T03:18:43.609Z,6.91
2019-05-09T03:19:43.644Z,6.89
2019-05-09T03:20:43.711Z,6.91
2019-05-09T03:21:43.750Z,6.73
2019-05-09T03:22:43.775Z,6.89
2019-05-09T03:23:43.818Z,6.79
2019-05-09T03:24:43.862Z,6.83
2019-05-09T03:25:43.933Z,6.80
2019-05-09T03:26:43.977Z,6.79
2019-05-09T03:27:43.999Z,6.71
2019-05-09T03:28:44.039Z,6.53
2019-05-09T03:29:44.080Z,6.58
2019-05-09T03:30:44.126Z,6.43
2019-05-09T03:31:44.193Z,6.43
2019-05-09T03:32:44.246Z,6.56
2019-05-09T03:33:44.257Z,6.56
2019-05-09T03:34:44.298Z,6.56
2019-05-09T03:35:44.343Z,6.56
2019-05-09T03:36:44.411Z,6.65
2019-05-09T03:37:44.430Z,6.53
2019-05-09T03:38:44.485Z,6.59
2019-05-09T03:39:44.533Z,6.58
2019-05-09T03:40:44.572Z,6.63
2019-05-09T03:41:44.639Z,6.62
2019-05-09T03:42:44.663Z,6.63
2019-05-09T03:43:44.690Z,6.56
2019-05-09T03:44:44.734Z,6.53
2019-05-09T03:45:44.777Z,6.43
2019-05-09T03:46:47.021Z,6.35
2019-05-09T03:47:44.866Z,6.41
2019-05-09T03:48:44.910Z,6.44
2019-05-09T03:49:44.955Z,6.35
2019-05-09T03:50:45.003Z,6.29
2019-05-09T03:51:45.063Z,6.26
2019-05-09T03:52:45.104Z,6.22
2019-05-09T03:53:45.159Z,6.30
2019-05-09T03:54:45.172Z,6.19
2019-05-09T03:55:47.267Z,6.13
2019-05-09T03:56:45.280Z,6.11
2019-05-09T03:57:47.500Z,6.06
2019-05-09T03:58:47.376Z,6.09
2019-05-09T03:59:45.388Z,6.00
2019-05-09T04:00:47.770Z,5.93
2019-05-09T04:01:47.827Z,5.95
2019-05-09T04:02:47.431Z,5.91
2019-05-09T04:03:47.977Z,5.93
2019-05-09T04:04:47.431Z,6.04
2019-05-09T04:05:56.675Z,6.10
2019-05-09T04:06:47.917Z,6.03
2019-05-09T04:07:47.661Z,5.96
2019-05-09T04:08:48.030Z,6.01
2019-05-09T04:09:47.865Z,5.98
2019-05-09T04:10:46.969Z,6.03
2019-05-09T04:11:48.349Z,6.07
2019-05-09T04:12:53.907Z,6.06
2019-05-09T04:13:47.644Z,6.09
2019-05-09T04:14:47.971Z,6.13
2019-05-09T04:15:47.709Z,6.07
2019-05-09T04:16:47.774Z,6.19
2019-05-09T04:17:47.555Z,6.10
2019-05-09T04:18:47.983Z,6.26
2019-05-09T04:19:47.928Z,6.18
2019-05-09T04:20:48.210Z,6.25
2019-05-09T04:21:48.281Z,6.25
2019-05-09T04:22:48.786Z,6.26
2019-05-09T04:23:48.073Z,6.28
2019-05-09T04:24:47.394Z,6.33
2019-05-09T04:25:47.945Z,6.38
2019-05-09T04:26:48.377Z,6.30
2019-05-09T04:27:47.999Z,6.32
2019-05-09T04:28:47.256Z,6.38
2019-05-09T04:29:48.380Z,6.36
2019-05-09T04:30:47.775Z,6.36
2019-05-09T04:31:48.310Z,6.36
2019-05-09T04:32:48.105Z,6.36
2019-05-09T04:33:47.360Z,6.33
2019-05-09T04:34:47.392Z,6.36
2019-05-09T04:35:47.574Z,6.32
2019-05-09T04:36:48.350Z,6.32
2019-05-09T04:37:48.217Z,6.28
2019-05-09T04:38:47.270Z,6.28
2019-05-09T04:39:47.659Z,6.26
2019-05-09T04:40:48.789Z,6.36
2019-05-09T04:41:48.660Z,6.28
2019-05-09T04:42:47.521Z,6.33
2019-05-09T04:43:48.697Z,6.40
2019-05-09T04:44:49.676Z,6.40
2019-05-09T04:45:47.401Z,6.41
2019-05-09T04:46:48.074Z,6.46
2019-05-09T04:47:47.465Z,6.51
2019-05-09T04:48:47.632Z,6.56
2019-05-09T04:49:47.931Z,6.63
2019-05-09T04:50:47.891Z,6.80
2019-05-09T04:51:47.932Z,6.91
2019-05-09T04:52:47.683Z,6.94
2019-05-09T04:53:48.085Z,6.97
2019-05-09T04:54:48.523Z,6.89
2019-05-09T04:55:47.990Z,6.94
2019-05-09T04:56:47.860Z,6.90
2019-05-09T04:57:48.583Z,6.91
2019-05-09T04:58:48.309Z,6.95
2019-05-09T04:59:47.986Z,6.94
2019-05-09T05:00:48.067Z,6.95
2019-05-09T05:01:48.072Z,6.86
2019-05-09T05:02:48.499Z,6.99
2019-05-09T05:03:48.180Z,6.90
2019-05-09T05:04:48.203Z,6.90
2019-05-09T05:05:48.316Z,6.90
2019-05-09T05:06:48.305Z,6.94
2019-05-09T05:07:48.342Z,6.99
2019-05-09T05:08:48.421Z,7.04
2019-05-09T05:09:48.530Z,7.16
2019-05-09T05:10:48.466Z,7.19
2019-05-09T05:11:49.060Z,7.24
2019-05-09T05:12:48.557Z,7.27
2019-05-09T05:13:48.595Z,7.29
2019-05-09T05:14:48.670Z,7.42
2019-05-09T05:15:48.686Z,7.47
2019-05-09T05:16:53.044Z,7.59
2019-05-09T05:17:48.770Z,7.67
2019-05-09T05:18:48.816Z,7.69
2019-05-09T05:19:48.896Z,7.72
2019-05-09T05:20:48.903Z,7.72
2019-05-09T05:21:48.967Z,7.67
2019-05-09T05:22:49.000Z,7.71
2019-05-09T05:23:49.035Z,7.69
2019-05-09T05:24:49.111Z,7.77
2019-05-09T05:25:49.122Z,7.72
2019-05-09T05:26:49.173Z,7.81
2019-05-09T05:27:49.214Z,7.81
2019-05-09T05:28:49.258Z,7.85
2019-05-09T05:29:49.319Z,7.84
2019-05-09T05:30:49.349Z,7.90
2019-05-09T05:31:49.386Z,8.00
2019-05-09T05:32:49.433Z,7.97
2019-05-09T05:33:53.624Z,8.11
2019-05-09T05:34:49.555Z,8.10
2019-05-09T05:35:49.565Z,8.14
2019-05-09T05:36:49.608Z,8.10
2019-05-09T05:37:49.664Z,8.18
2019-05-09T05:38:49.705Z,8.14
2019-05-09T05:39:49.767Z,8.15
2019-05-09T05:40:49.954Z,8.14
2019-05-09T05:41:49.839Z,8.17
2019-05-09T05:42:49.903Z,8.15
2019-05-09T05:43:49.941Z,8.32
2019-05-09T05:44:49.987Z,8.25
2019-05-09T05:45:50.016Z,8.25
2019-05-09T05:46:50.820Z,8.32
2019-05-09T05:47:50.097Z,8.30
2019-05-09T05:48:50.147Z,8.32
2019-05-09T05:49:50.224Z,8.36
2019-05-09T05:50:50.230Z,8.39
2019-05-09T05:51:50.281Z,8.50
2019-05-09T05:52:50.320Z,8.51
2019-05-09T05:53:50.399Z,8.53
2019-05-09T05:54:50.418Z,8.55
2019-05-09T05:55:52.633Z,8.66
2019-05-09T05:56:50.502Z,8.62
2019-05-09T05:57:50.546Z,8.62
2019-05-09T05:58:50.620Z,8.78
2019-05-09T05:59:50.650Z,8.66
2019-05-09T06:00:50.701Z,8.73
2019-05-09T06:01:50.732Z,8.72
2019-05-09T06:02:50.773Z,8.79
2019-05-09T06:03:50.822Z,8.84
2019-05-09T06:04:50.867Z,8.91
2019-05-09T06:05:51.754Z,8.86
2019-05-09T06:06:50.951Z,8.87
2019-05-09T06:07:51.002Z,8.91
2019-05-09T06:08:51.063Z,9.06
2019-05-09T06:09:51.085Z,9.01
2019-05-09T06:10:51.148Z,9.13
2019-05-09T06:11:51.176Z,9.20
2019-05-09T06:12:51.259Z,9.32
2019-05-09T06:13:56.400Z,9.32
2019-05-09T06:14:51.312Z,9.35
2019-05-09T06:15:51.374Z,9.49
2019-05-09T06:16:51.403Z,9.58
2019-05-09T06:17:51.448Z,9.66
2019-05-09T06:18:51.558Z,9.68
2019-05-09T06:19:51.553Z,9.75
2019-05-09T06:20:51.613Z,9.88
2019-05-09T06:21:52.383Z,10.00
2019-05-09T06:22:51.672Z,10.18
2019-05-09T06:23:51.721Z,10.30
2019-05-09T06:24:51.765Z,10.42
2019-05-09T06:25:51.834Z,10.47
2019-05-09T06:26:51.896Z,10.66
2019-05-09T06:27:51.902Z,10.60
2019-05-09T06:28:51.949Z,10.65
2019-05-09T06:29:51.999Z,10.66
2019-05-09T06:30:52.053Z,10.74
2019-05-09T06:31:52.100Z,10.83
2019-05-09T06:32:52.134Z,10.88
2019-05-09T06:33:53.548Z,10.96
2019-05-09T06:34:52.226Z,11.01
2019-05-09T06:35:52.274Z,11.06
2019-05-09T06:36:52.339Z,10.94
2019-05-09T06:37:52.368Z,11.07
2019-05-09T06:38:52.546Z,11.09
2019-05-09T06:39:52.454Z,11.14
2019-05-09T06:40:52.502Z,11.46
2019-05-09T06:41:52.565Z,12.02
2019-05-09T06:42:52.596Z,12.57
2019-05-09T06:43:52.641Z,13.07
2019-05-09T06:44:52.689Z,13.22
2019-05-09T06:45:52.739Z,13.73
2019-05-09T06:46:52.801Z,14.13
2019-05-09T06:47:52.835Z,14.43
2019-05-09T06:48:52.892Z,15.08
2019-05-09T06:49:52.927Z,14.93
2019-05-09T06:50:52.975Z,15.33
2019-05-09T06:51:53.107Z,15.23
2019-05-09T06:52:53.061Z,15.60
2019-05-09T06:53:53.132Z,16.01
2019-05-09T06:54:53.159Z,16.58
2019-05-09T06:55:53.221Z,17.03
2019-05-09T06:56:53.281Z,17.35
2019-05-09T06:57:53.309Z,17.36
2019-05-09T06:58:53.353Z,17.11
2019-05-09T06:59:53.407Z,17.06
2019-05-09T07:00:53.447Z,15.89
2019-05-09T07:01:53.517Z,15.75
2019-05-09T07:02:57.129Z,15.63
2019-05-09T07:03:53.602Z,15.74
2019-05-09T07:04:53.649Z,15.85
2019-05-09T07:05:53.694Z,16.44
2019-05-09T07:06:53.758Z,16.70
2019-05-09T07:07:53.857Z,16.06
2019-05-09T07:08:53.839Z,16.25
2019-05-09T07:09:53.887Z,16.50
2019-05-09T07:10:53.946Z,16.40
2019-05-09T07:11:54.004Z,16.30
2019-05-09T07:12:54.080Z,16.07
2019-05-09T07:13:54.087Z,15.86
2019-05-09T07:14:54.134Z,15.82
2019-05-09T07:15:54.181Z,15.72
2019-05-09T07:16:54.238Z,15.61
2019-05-09T07:17:54.323Z,15.39
2019-05-09T07:18:54.332Z,14.69
2019-05-09T07:19:54.391Z,13.71
2019-05-09T07:20:54.440Z,13.71
2019-05-09T07:21:54.724Z,13.55
2019-05-09T07:22:54.548Z,13.63
2019-05-09T07:23:54.579Z,13.52
2019-05-09T07:24:57.902Z,13.38
2019-05-09T07:25:54.675Z,13.38
2019-05-09T07:26:54.726Z,13.20
2019-05-09T07:27:54.794Z,13.14
2019-05-09T07:28:54.823Z,13.17
2019-05-09T07:29:54.904Z,13.07
2019-05-09T07:30:57.224Z,13.07
2019-05-09T07:31:57.217Z,12.95
2019-05-09T07:32:55.041Z,12.77
2019-05-09T07:33:55.067Z,12.75
2019-05-09T07:34:55.116Z,12.54
2019-05-09T07:35:55.164Z,12.49
2019-05-09T07:36:55.236Z,12.54
2019-05-09T07:37:57.605Z,12.81
2019-05-09T07:38:55.321Z,12.82
2019-05-09T07:39:57.647Z,12.85
2019-05-09T07:40:57.918Z,12.82
2019-05-09T07:41:55.461Z,12.79
2019-05-09T07:42:56.102Z,12.78
2019-05-09T07:43:58.080Z,12.82
2019-05-09T07:44:55.602Z,12.96
2019-05-09T07:45:57.951Z,12.96
2019-05-09T07:46:57.913Z,12.99
2019-05-09T07:47:58.174Z,13.02
2019-05-09T07:48:57.749Z,13.02
2019-05-09T07:49:58.376Z,13.04
2019-05-09T07:50:59.474Z,13.07
2019-05-09T07:51:58.271Z,12.92
2019-05-09T07:52:57.950Z,12.99
2019-05-09T07:53:58.678Z,12.79
2019-05-09T07:54:58.057Z,12.71
2019-05-09T07:55:58.072Z,12.66
2019-05-09T07:56:58.033Z,12.67
2019-05-09T07:57:58.764Z,12.70
2019-05-09T07:58:58.288Z,12.82
2019-05-09T07:59:58.281Z,12.77
2019-05-09T08:01:00.743Z,12.84
2019-05-09T08:01:58.112Z,12.82
2019-05-09T08:02:58.080Z,12.79
2019-05-09T08:03:58.432Z,13.06
2019-05-09T08:04:57.951Z,13.09
2019-05-09T08:05:57.955Z,13.02
2019-05-09T08:06:57.737Z,12.92
2019-05-09T08:07:58.574Z,12.84
2019-05-09T08:08:58.163Z,12.96
2019-05-09T08:09:57.912Z,13.03
2019-05-09T08:10:58.461Z,13.30
2019-05-09T08:11:58.819Z,13.51
2019-05-09T08:12:58.583Z,13.71
2019-05-09T08:13:57.559Z,13.98
2019-05-09T08:15:10.258Z,14.29
2019-05-09T08:15:58.503Z,14.46
2019-05-09T08:16:58.108Z,14.37
2019-05-09T08:17:59.036Z,14.35
2019-05-09T08:18:57.788Z,14.67
2019-05-09T08:19:58.346Z,14.99
2019-05-09T08:20:57.963Z,15.70
2019-05-09T08:21:57.712Z,16.04
2019-05-09T08:23:01.356Z,16.16
2019-05-09T08:23:58.023Z,16.01
2019-05-09T08:24:57.673Z,16.01
2019-05-09T08:25:58.036Z,16.04
2019-05-09T08:26:58.183Z,15.52
2019-05-09T08:27:58.779Z,15.38
2019-05-09T08:28:58.450Z,15.38
2019-05-09T08:29:58.399Z,15.33
2019-05-09T08:30:58.504Z,15.48
2019-05-09T08:31:58.461Z,15.56
2019-05-09T08:32:59.962Z,16.31
2019-05-09T08:33:59.302Z,17.04
2019-05-09T08:34:58.063Z,17.67
2019-05-09T08:35:58.610Z,17.88
2019-05-09T08:36:58.337Z,17.88
2019-05-09T08:37:58.552Z,17.62
2019-05-09T08:38:58.866Z,17.26
2019-05-09T08:39:58.308Z,17.04
2019-05-09T08:40:58.875Z,16.81
2019-05-09T08:41:59.208Z,16.55
2019-05-09T08:42:58.997Z,16.14
2019-05-09T08:43:58.505Z,15.88
2019-05-09T08:44:58.573Z,15.61
2019-05-09T08:45:58.689Z,15.33
2019-05-09T08:46:58.643Z,15.08
2019-05-09T08:47:58.700Z,14.88
2019-05-09T08:48:58.742Z,14.60
2019-05-09T08:49:58.916Z,14.49
2019-05-09T08:50:58.846Z,14.34
2019-05-09T08:52:12.001Z,14.29
2019-05-09T08:52:58.945Z,14.24
2019-05-09T08:53:59.001Z,14.28
2019-05-09T08:54:59.073Z,14.16
2019-05-09T08:55:59.107Z,14.04
2019-05-09T08:56:59.196Z,13.94
2019-05-09T08:57:59.197Z,13.92
2019-05-09T08:59:01.978Z,13.92
2019-05-09T08:59:59.329Z,13.95
2019-05-09T09:01:03.635Z,14.02
2019-05-09T09:02:12.281Z,14.02
2019-05-09T09:02:59.453Z,14.12
2019-05-09T09:03:59.570Z,14.10
2019-05-09T09:04:59.562Z,14.14
2019-05-09T09:05:59.610Z,14.04
2019-05-09T09:06:59.641Z,14.14
2019-05-09T09:07:59.700Z,14.09
2019-05-09T09:08:59.743Z,14.10
2019-05-09T09:09:59.801Z,13.99
2019-05-09T09:10:59.899Z,13.84
2019-05-09T09:11:59.897Z,13.76
2019-05-09T09:12:59.936Z,13.55
2019-05-09T09:13:59.997Z,13.46
2019-05-09T09:15:00.064Z,13.29
2019-05-09T09:16:14.355Z,13.21
2019-05-09T09:17:00.146Z,13.03
2019-05-09T09:18:00.185Z,12.92
2019-05-09T09:19:00.232Z,12.79
2019-05-09T09:20:00.285Z,12.71
2019-05-09T09:21:00.372Z,12.66
2019-05-09T09:22:00.718Z,12.49
2019-05-09T09:23:00.445Z,12.41
2019-05-09T09:24:00.479Z,12.06
2019-05-09T09:25:00.543Z,12.08
2019-05-09T09:26:00.608Z,12.12
2019-05-09T09:27:00.623Z,12.15
2019-05-09T09:28:00.671Z,12.29
2019-05-09T09:29:00.724Z,12.31
2019-05-09T09:30:16.822Z,12.39
2019-05-09T09:31:00.938Z,12.41
2019-05-09T09:32:00.884Z,12.52
2019-05-09T09:33:00.915Z,12.62
2019-05-09T09:34:00.958Z,12.67
2019-05-09T09:35:01.009Z,12.79
2019-05-09T09:36:01.057Z,12.74
2019-05-09T09:37:03.748Z,12.70
2019-05-09T09:38:01.168Z,12.84
2019-05-09T09:39:02.957Z,12.95
2019-05-09T09:40:01.250Z,12.95
2019-05-09T09:41:01.298Z,13.09
2019-05-09T09:42:01.375Z,13.21
2019-05-09T09:43:01.398Z,13.36
2019-05-09T09:44:01.460Z,13.52
2019-05-09T09:45:01.514Z,13.74
2019-05-09T09:46:10.568Z,13.69
2019-05-09T09:47:01.617Z,13.88
2019-05-09T09:48:01.651Z,13.80
2019-05-09T09:49:01.689Z,13.81
2019-05-09T09:50:01.770Z,13.83
2019-05-09T09:51:01.793Z,13.95
2019-05-09T09:52:01.857Z,13.98
2019-05-09T09:53:01.883Z,13.98
2019-05-09T09:54:01.938Z,13.98
2019-05-09T09:55:01.979Z,13.84
2019-05-09T09:56:02.121Z,13.80
2019-05-09T09:57:02.109Z,13.76
2019-05-09T09:58:02.134Z,13.74
2019-05-09T09:59:02.170Z,13.71
2019-05-09T10:00:02.227Z,13.59
2019-05-09T10:01:03.568Z,13.77
2019-05-09T10:02:02.361Z,13.74
2019-05-09T10:03:02.514Z,13.94
2019-05-09T10:04:15.710Z,14.09
2019-05-09T10:05:02.480Z,14.19
2019-05-09T10:06:02.531Z,14.25
2019-05-09T10:07:02.588Z,14.20
2019-05-09T10:08:02.650Z,14.21
2019-05-09T10:09:02.669Z,14.21
2019-05-09T10:10:02.729Z,14.31
2019-05-09T10:11:02.763Z,14.19
2019-05-09T10:12:02.845Z,14.17
2019-05-09T10:13:04.189Z,14.21
2019-05-09T10:14:02.907Z,14.32
2019-05-09T10:15:02.963Z,14.29
2019-05-09T10:16:03.007Z,14.37
2019-05-09T10:17:03.171Z,14.43
2019-05-09T10:18:03.132Z,14.54
2019-05-09T10:19:03.167Z,14.57
2019-05-09T10:20:03.214Z,14.60
2019-05-09T10:21:03.255Z,14.62
2019-05-09T10:22:03.308Z,14.65
2019-05-09T10:23:14.982Z,14.69
2019-05-09T10:24:03.425Z,14.60
2019-05-09T10:25:03.454Z,14.62
2019-05-09T10:26:03.513Z,14.75
2019-05-09T10:27:03.549Z,14.83
2019-05-09T10:28:03.618Z,15.20
2019-05-09T10:29:03.650Z,15.68
2019-05-09T10:30:03.708Z,16.01
2019-05-09T10:31:03.763Z,16.26
2019-05-09T10:32:03.800Z,16.50
2019-05-09T10:33:03.877Z,16.55
2019-05-09T10:34:03.898Z,16.58
2019-05-09T10:35:03.977Z,17.08
2019-05-09T10:36:04.956Z,17.15
2019-05-09T10:37:04.047Z,16.90
2019-05-09T10:38:04.135Z,16.71
2019-05-09T10:39:04.170Z,16.01
2019-05-09T10:40:04.213Z,15.97
2019-05-09T10:41:04.282Z,15.84
2019-05-09T10:42:04.301Z,15.88
2019-05-09T10:43:04.361Z,16.15
2019-05-09T10:44:04.725Z,16.60
2019-05-09T10:45:04.463Z,16.88
2019-05-09T10:46:04.502Z,17.26
2019-05-09T10:47:04.557Z,17.26
2019-05-09T10:48:04.612Z,17.30
2019-05-09T10:49:04.677Z,17.20
2019-05-09T10:50:04.716Z,17.30
2019-05-09T10:51:06.366Z,16.92
2019-05-09T10:52:04.821Z,16.70
2019-05-09T10:53:07.816Z,16.62
2019-05-09T10:54:04.935Z,16.56
2019-05-09T10:55:04.963Z,17.14
2019-05-09T10:56:05.022Z,17.67
2019-05-09T10:57:05.077Z,17.73
2019-05-09T10:58:07.840Z,18.07
2019-05-09T10:59:07.578Z,18.50
2019-05-09T11:00:05.296Z,18.80
2019-05-09T11:01:08.884Z,18.54
2019-05-09T11:02:05.416Z,17.14
2019-05-09T11:03:05.378Z,16.71
2019-05-09T11:04:07.919Z,16.20
2019-05-09T11:05:08.209Z,16.27
2019-05-09T11:06:05.538Z,16.26
2019-05-09T11:07:07.917Z,16.56
2019-05-09T11:08:08.036Z,16.88
2019-05-09T11:09:08.412Z,17.32
2019-05-09T11:10:23.636Z,17.89
2019-05-09T11:11:08.629Z,18.17
2019-05-09T11:12:07.861Z,18.12
2019-05-09T11:13:07.549Z,17.53
2019-05-09T11:14:08.305Z,17.36
2019-05-09T11:15:08.968Z,17.43
2019-05-09T11:16:07.700Z,17.59
2019-05-09T11:17:14.138Z,18.03
2019-05-09T11:18:08.165Z,17.85
2019-05-09T11:19:07.979Z,17.66
2019-05-09T11:20:08.683Z,17.33
2019-05-09T11:21:08.471Z,17.51
2019-05-09T11:22:08.113Z,17.33
2019-05-09T11:23:08.108Z,17.59
2019-05-09T11:24:08.340Z,17.66
2019-05-09T11:25:08.627Z,17.91
2019-05-09T11:26:06.572Z,18.58
2019-05-09T11:27:08.537Z,19.11
2019-05-09T11:28:12.594Z,19.38
2019-05-09T11:29:07.962Z,19.38
2019-05-09T11:30:08.331Z,19.78
2019-05-09T11:31:08.165Z,19.51
2019-05-09T11:32:08.092Z,18.50
2019-05-09T11:33:07.820Z,18.33
2019-05-09T11:34:08.891Z,18.02
2019-05-09T11:35:08.970Z,18.04
2019-05-09T11:36:09.741Z,17.95
2019-05-09T11:37:08.460Z,17.51
2019-05-09T11:38:08.414Z,17.48
2019-05-09T11:39:10.723Z,17.38
2019-05-09T11:40:07.302Z,17.54
2019-05-09T11:41:08.298Z,17.99
2019-05-09T11:42:07.430Z,18.19
2019-05-09T11:43:07.540Z,18.72
2019-05-09T11:44:08.485Z,18.34
2019-05-09T11:45:07.837Z,18.36
2019-05-09T11:46:10.270Z,18.49
2019-05-09T11:47:23.986Z,18.98
2019-05-09T11:48:08.311Z,19.63
2019-05-09T11:49:08.525Z,18.91
2019-05-09T11:50:08.839Z,18.58
2019-05-09T11:51:09.028Z,18.68
2019-05-09T11:52:08.431Z,18.67
2019-05-09T11:53:08.860Z,18.73
2019-05-09T11:54:09.179Z,19.28
2019-05-09T11:55:27.152Z,19.10
2019-05-09T11:56:08.363Z,18.52
2019-05-09T11:57:08.215Z,17.91
2019-05-09T11:58:08.557Z,17.97
2019-05-09T11:59:08.329Z,17.95
2019-05-09T12:00:08.471Z,18.22
2019-05-09T12:01:08.447Z,18.33
2019-05-09T12:02:09.012Z,18.82
2019-05-09T12:03:09.084Z,18.83
2019-05-09T12:04:08.585Z,18.72
2019-05-09T12:05:08.929Z,18.68
2019-05-09T12:06:08.718Z,18.74
2019-05-09T12:07:08.745Z,17.88
2019-05-09T12:08:08.856Z,17.66
2019-05-09T12:09:09.010Z,17.85
2019-05-09T12:10:08.917Z,17.97
2019-05-09T12:11:08.993Z,18.07
2019-05-09T12:12:09.010Z,17.81
2019-05-09T12:13:09.066Z,17.64
2019-05-09T12:14:09.147Z,17.47
2019-05-09T12:15:09.172Z,17.53
2019-05-09T12:16:09.262Z,17.71
2019-05-09T12:17:09.277Z,17.51
2019-05-09T12:18:11.592Z,17.40
2019-05-09T12:19:09.382Z,17.59
2019-05-09T12:20:13.309Z,17.67
2019-05-09T12:21:09.504Z,17.70
2019-05-09T12:22:09.589Z,17.64
2019-05-09T12:23:09.627Z,17.67
2019-05-09T12:24:09.680Z,17.59
2019-05-09T12:25:09.695Z,17.50
2019-05-09T12:26:09.746Z,17.40
2019-05-09T12:27:09.831Z,17.32
2019-05-09T12:28:09.850Z,17.28
2019-05-09T12:29:09.907Z,17.18
2019-05-09T12:30:09.961Z,17.13
2019-05-09T12:31:10.009Z,16.90
2019-05-09T12:32:10.077Z,16.56
2019-05-09T12:33:10.121Z,16.22
2019-05-09T12:34:10.216Z,15.88
2019-05-09T12:35:10.214Z,15.46
2019-05-09T12:36:10.260Z,15.23
2019-05-09T12:37:10.330Z,14.90
2019-05-09T12:38:10.366Z,14.80
2019-05-09T12:39:10.418Z,14.99
2019-05-09T12:40:10.468Z,15.39
2019-05-09T12:41:10.537Z,15.66
2019-05-09T12:42:10.594Z,15.97
2019-05-09T12:43:10.617Z,16.18
2019-05-09T12:44:10.672Z,16.31
2019-05-09T12:45:10.718Z,16.60
2019-05-09T12:46:10.769Z,16.96
2019-05-09T12:47:10.895Z,17.18
2019-05-09T12:48:15.366Z,17.43
2019-05-09T12:49:10.938Z,17.35
2019-05-09T12:50:10.993Z,17.32
2019-05-09T12:51:11.027Z,17.26
2019-05-09T12:52:11.116Z,17.48
2019-05-09T12:53:11.130Z,17.55
2019-05-09T12:54:11.187Z,17.76
2019-05-09T12:55:13.073Z,17.89
2019-05-09T12:56:11.300Z,18.17
2019-05-09T12:57:11.388Z,18.28
2019-05-09T12:58:11.395Z,18.22
2019-05-09T12:59:11.468Z,18.43
2019-05-09T13:00:11.511Z,18.42
2019-05-09T13:01:11.557Z,18.55
2019-05-09T13:02:11.644Z,18.42
2019-05-09T13:03:11.766Z,17.84
2019-05-09T13:04:11.719Z,17.48
2019-05-09T13:05:11.778Z,17.63